createdAt,value
2023-05-06T00:00:22.585Z,87.36
2023-05-06T00:03:06.463Z,87.30
2023-05-06T00:05:49.807Z,87.83
2023-05-06T00:08:33.215Z,87.45
2023-05-06T00:11:16.585Z,87.71
2023-05-06T00:13:59.895Z,87.87
2023-05-06T00:16:46.200Z,88.02
2023-05-06T00:19:30.479Z,88.28
2023-05-06T00:22:14.865Z,88.30
2023-05-06T00:24:58.064Z,87.51
2023-05-06T00:27:41.200Z,87.81
2023-05-06T00:30:25.693Z,88.31
2023-05-06T00:33:10.525Z,88.43
2023-05-06T00:35:53.959Z,88.45
2023-05-06T00:38:37.278Z,89.32
2023-05-06T00:41:20.488Z,88.90
2023-05-06T00:44:03.930Z,88.44
2023-05-06T00:46:47.406Z,89.03
2023-05-06T00:49:32.170Z,88.02
2023-05-06T00:52:16.234Z,88.28
2023-05-06T00:54:59.575Z,88.25
2023-05-06T00:57:43.474Z,88.24
2023-05-06T01:00:26.937Z,88.57
2023-05-06T01:03:10.417Z,87.88
2023-05-06T01:06:05.634Z,88.67
2023-05-06T01:08:56.434Z,88.60
2023-05-06T01:11:46.898Z,89.08
2023-05-06T01:14:37.405Z,88.32
2023-05-06T01:17:21.789Z,89.00
2023-05-06T01:20:10.802Z,89.31
2023-05-06T01:22:56.160Z,88.88
2023-05-06T01:25:40.848Z,88.94
2023-05-06T01:28:23.965Z,88.50
2023-05-06T01:31:13.320Z,87.87
2023-05-06T01:34:06.714Z,87.92
2023-05-06T01:37:00.534Z,88.38
2023-05-06T01:39:45.871Z,88.56
2023-05-06T01:42:32.273Z,88.61
2023-05-06T01:45:17.221Z,88.93
2023-05-06T01:48:01.046Z,88.10
2023-05-06T01:50:44.913Z,88.25
2023-05-06T01:53:28.188Z,88.32
2023-05-06T01:56:14.117Z,88.60
2023-05-06T01:58:59.808Z,88.71
2023-05-06T02:01:43.379Z,89.04
2023-05-06T02:04:27.046Z,90.84
2023-05-06T02:07:10.368Z,90.74
2023-05-06T02:09:53.774Z,89.85
2023-05-06T02:12:37.276Z,90.47
2023-05-06T02:15:24.213Z,90.82
2023-05-06T02:18:07.588Z,91.48
2023-05-06T02:20:51.233Z,90.58
2023-05-06T02:23:35.227Z,91.08
2023-05-06T02:26:18.452Z,91.15
2023-05-06T02:29:01.731Z,90.83
2023-05-06T02:31:46.748Z,90.83
2023-05-06T02:34:29.910Z,90.31
2023-05-06T02:37:13.124Z,90.68
2023-05-06T02:39:56.694Z,90.28
2023-05-06T02:42:40.969Z,90.14
2023-05-06T02:45:24.631Z,90.18
2023-05-06T02:48:11.420Z,90.22
2023-05-06T02:50:54.979Z,90.53
2023-05-06T02:53:38.522Z,90.35
2023-05-06T02:56:21.734Z,90.52
2023-05-06T02:59:05.258Z,90.27
2023-05-06T03:01:48.491Z,89.67
2023-05-06T03:04:33.498Z,89.40
2023-05-06T03:07:16.711Z,90.03
2023-05-06T03:10:00.281Z,90.22
2023-05-06T03:12:44.409Z,89.88
2023-05-06T03:15:29.075Z,90.04
2023-05-06T03:18:12.763Z,90.03
2023-05-06T03:20:57.484Z,90.28
2023-05-06T03:23:41.246Z,90.37
2023-05-06T03:26:25.712Z,89.46
2023-05-06T03:29:09.002Z,90.03
2023-05-06T03:31:52.382Z,89.64
2023-05-06T03:34:36.176Z,89.58
2023-05-06T03:37:20.801Z,88.27
2023-05-06T03:40:04.936Z,88.09
2023-05-06T03:42:48.418Z,86.91
2023-05-06T03:45:31.650Z,86.33
2023-05-06T03:48:14.912Z,85.94
2023-05-06T03:50:58.410Z,85.20
2023-05-06T03:53:43.071Z,84.32
2023-05-06T03:56:26.594Z,84.84
2023-05-06T03:59:10.237Z,84.36
2023-05-06T04:01:53.701Z,83.07
2023-05-06T04:04:37.040Z,83.11
2023-05-06T04:07:20.306Z,82.05
2023-05-06T04:10:05.444Z,81.31
2023-05-06T04:12:48.739Z,81.32
2023-05-06T04:15:34.763Z,80.34
2023-05-06T04:18:20.077Z,79.91
2023-05-06T04:21:06.057Z,78.92
2023-05-06T04:23:49.406Z,78.24
2023-05-06T04:26:33.921Z,78.01
2023-05-06T04:29:17.135Z,78.19
2023-05-06T04:32:00.633Z,76.53
2023-05-06T04:34:43.833Z,76.23
2023-05-06T04:37:28.477Z,75.71
2023-05-06T04:40:13.897Z,75.97
2023-05-06T04:42:58.628Z,74.93
2023-05-06T04:45:51.912Z,74.08
2023-05-06T04:48:35.200Z,75.19
2023-05-06T04:51:18.555Z,74.76
2023-05-06T04:54:02.156Z,71.84
2023-05-06T04:56:45.803Z,72.49
2023-05-06T04:59:30.508Z,72.27
2023-05-06T05:02:13.755Z,71.58
2023-05-06T05:04:58.792Z,71.67
2023-05-06T05:07:42.117Z,69.84
2023-05-06T05:10:25.954Z,69.60
2023-05-06T05:13:09.530Z,69.21
2023-05-06T05:15:57.475Z,68.22
2023-05-06T05:18:40.957Z,68.55
2023-05-06T05:21:24.429Z,69.72
2023-05-06T05:24:07.932Z,68.00
2023-05-06T05:26:51.146Z,68.94
2023-05-06T05:29:35.008Z,68.01
2023-05-06T05:32:20.340Z,68.20
2023-05-06T05:35:03.526Z,68.67
2023-05-06T05:37:47.547Z,67.31
2023-05-06T05:40:32.105Z,67.96
2023-05-06T05:43:15.524Z,68.74
2023-05-06T05:45:59.110Z,69.70
2023-05-06T05:48:43.854Z,70.27
2023-05-06T05:51:27.095Z,71.05
2023-05-06T05:54:10.321Z,71.70
2023-05-06T05:56:53.589Z,70.37
2023-05-06T05:59:38.460Z,71.36
2023-05-06T06:02:21.846Z,70.47
2023-05-06T06:05:07.789Z,70.62
2023-05-06T06:07:53.748Z,69.98
2023-05-06T06:10:36.804Z,69.11
2023-05-06T06:13:20.095Z,70.02
2023-05-06T06:16:03.914Z,70.44
2023-05-06T06:18:47.510Z,70.28
2023-05-06T06:21:32.290Z,72.65
2023-05-06T06:24:15.387Z,73.34
2023-05-06T06:26:58.698Z,73.29
2023-05-06T06:29:44.246Z,71.67
2023-05-06T06:32:27.416Z,71.32
2023-05-06T06:35:10.993Z,70.59
2023-05-06T06:37:56.562Z,69.22
2023-05-06T06:40:40.051Z,69.68
2023-05-06T06:43:24.821Z,68.29
2023-05-06T06:46:08.045Z,70.72
2023-05-06T06:48:51.529Z,69.70
2023-05-06T06:51:34.665Z,70.46
2023-05-06T06:54:19.516Z,69.41
2023-05-06T06:57:02.800Z,70.17
2023-05-06T06:59:47.759Z,67.30
2023-05-06T07:02:31.083Z,65.16
2023-05-06T07:05:15.361Z,63.20
2023-05-06T07:07:58.525Z,59.29
2023-05-06T07:10:43.097Z,58.56
2023-05-06T07:13:26.580Z,54.98
2023-05-06T07:16:10.047Z,55.35
2023-05-06T07:18:54.450Z,54.51
2023-05-06T07:21:37.680Z,50.46
2023-05-06T07:24:20.909Z,50.40
2023-05-06T07:27:05.554Z,51.35
2023-05-06T07:29:48.833Z,51.10
2023-05-06T07:32:32.597Z,51.27
2023-05-06T07:35:15.779Z,48.05
2023-05-06T07:37:59.409Z,46.76
2023-05-06T07:40:42.624Z,46.89
2023-05-06T07:43:27.281Z,45.23
2023-05-06T07:46:10.680Z,44.64
2023-05-06T07:48:54.145Z,44.10
2023-05-06T07:51:37.744Z,39.09
2023-05-06T07:54:20.920Z,37.71
2023-05-06T07:57:04.158Z,35.72
2023-05-06T07:59:51.155Z,35.54
2023-05-06T08:02:34.653Z,35.39
2023-05-06T08:05:18.286Z,29.45
2023-05-06T08:08:01.947Z,24.44
2023-05-06T08:10:45.724Z,25.27
2023-05-06T08:13:29.362Z,22.59
2023-05-06T08:16:14.818Z,25.48
2023-05-06T08:18:58.964Z,26.24
2023-05-06T08:21:42.676Z,21.28
2023-05-06T08:24:25.828Z,22.28
2023-05-06T08:27:09.271Z,21.89
2023-05-06T08:29:52.704Z,22.57
2023-05-06T08:32:37.351Z,23.33
2023-05-06T08:35:22.072Z,21.39
2023-05-06T08:38:05.435Z,18.24
2023-05-06T08:40:50.652Z,16.65
2023-05-06T08:43:41.518Z,20.26
2023-05-06T08:46:25.106Z,18.97
2023-05-06T08:49:11.192Z,21.39
2023-05-06T08:51:54.501Z,21.17
2023-05-06T08:54:38.713Z,27.69
2023-05-06T08:57:23.111Z,28.61
2023-05-06T09:00:11.228Z,26.55
2023-05-06T09:02:54.789Z,29.65
2023-05-06T09:05:42.873Z,28.95
2023-05-06T09:08:26.205Z,30.16
2023-05-06T09:11:25.438Z,29.79
2023-05-06T09:14:11.015Z,28.68
2023-05-06T09:16:54.341Z,29.64
2023-05-06T09:19:39.857Z,29.58
2023-05-06T09:22:24.644Z,30.13
2023-05-06T09:25:10.021Z,29.01
2023-05-06T09:28:06.782Z,29.48
2023-05-06T09:30:52.259Z,24.06
2023-05-06T09:33:37.448Z,23.26
2023-05-06T09:36:21.006Z,21.11
2023-05-06T09:39:11.343Z,18.46
2023-05-06T09:41:55.734Z,20.16
2023-05-06T09:45:02.316Z,20.03
2023-05-06T09:47:46.104Z,16.90
2023-05-06T09:50:29.968Z,18.57
2023-05-06T09:53:14.345Z,21.48
2023-05-06T09:56:00.637Z,24.27
2023-05-06T09:58:47.210Z,26.46
2023-05-06T10:01:36.921Z,28.97
2023-05-06T10:04:27.317Z,28.27
2023-05-06T10:07:13.842Z,30.77
2023-05-06T10:10:00.278Z,31.21
2023-05-06T10:12:49.119Z,30.75
2023-05-06T10:15:34.363Z,28.51
2023-05-06T10:18:20.512Z,25.75
2023-05-06T10:21:23.261Z,25.39
2023-05-06T10:24:11.634Z,24.79
2023-05-06T10:26:57.802Z,26.82
2023-05-06T10:29:43.170Z,27.56
2023-05-06T10:32:29.171Z,29.21
2023-05-06T10:35:32.249Z,29.33
2023-05-06T10:38:23.663Z,30.07
2023-05-06T10:41:09.453Z,29.37
2023-05-06T10:43:57.070Z,29.80
2023-05-06T10:46:58.505Z,29.58
2023-05-06T10:49:41.850Z,26.99
2023-05-06T10:52:25.034Z,26.17
2023-05-06T10:55:26.831Z,25.40
2023-05-06T10:58:15.160Z,25.45
2023-05-06T11:00:59.701Z,26.32
2023-05-06T11:03:45.126Z,27.98
2023-05-06T11:06:36.509Z,28.49
2023-05-06T11:09:20.912Z,28.87
2023-05-06T11:12:07.145Z,29.33
2023-05-06T11:14:50.993Z,29.86
2023-05-06T11:17:35.110Z,29.84
2023-05-06T11:20:38.425Z,31.14
2023-05-06T11:23:22.004Z,32.32
2023-05-06T11:26:08.999Z,32.81
2023-05-06T11:28:53.590Z,31.40
2023-05-06T11:31:42.462Z,30.15
2023-05-06T11:34:28.131Z,30.99
2023-05-06T11:37:11.648Z,31.73
2023-05-06T11:39:55.125Z,31.92
2023-05-06T11:42:38.332Z,32.15
2023-05-06T11:45:23.764Z,31.24
2023-05-06T11:48:07.505Z,31.61
2023-05-06T11:50:51.225Z,30.10
2023-05-06T11:53:34.410Z,30.59
2023-05-06T11:56:17.590Z,30.44
2023-05-06T11:59:00.811Z,30.26
2023-05-06T12:01:46.583Z,31.73
2023-05-06T12:04:37.797Z,31.27
2023-05-06T12:07:21.252Z,31.65
2023-05-06T12:10:05.107Z,31.34
2023-05-06T12:12:48.477Z,30.90
2023-05-06T12:15:34.235Z,30.74
2023-05-06T12:18:19.277Z,30.95
2023-05-06T12:21:03.897Z,30.33
2023-05-06T12:23:54.254Z,30.96
2023-05-06T12:26:45.874Z,31.00
2023-05-06T12:29:31.867Z,31.76
2023-05-06T12:32:15.416Z,31.51
2023-05-06T12:35:00.957Z,32.52
2023-05-06T12:37:46.091Z,31.49
2023-05-06T12:40:29.504Z,32.14
2023-05-06T12:43:13.966Z,31.85
2023-05-06T12:46:05.225Z,32.01
2023-05-06T12:49:21.344Z,32.61
2023-05-06T12:52:10.574Z,33.71
2023-05-06T12:54:53.974Z,34.69
2023-05-06T12:57:37.389Z,35.33
2023-05-06T13:00:21.237Z,36.92
2023-05-06T13:03:08.127Z,37.67
2023-05-06T13:05:53.024Z,37.29
2023-05-06T13:08:37.544Z,37.73
2023-05-06T13:11:22.351Z,38.49
2023-05-06T13:14:05.547Z,39.04
2023-05-06T13:16:49.612Z,38.93
2023-05-06T13:19:33.552Z,38.85
2023-05-06T13:22:17.075Z,39.11
2023-05-06T13:25:01.694Z,38.26
2023-05-06T13:27:44.907Z,38.20
2023-05-06T13:30:28.286Z,37.81
2023-05-06T13:33:11.390Z,36.61
2023-05-06T13:35:57.584Z,36.23
2023-05-06T13:38:40.825Z,36.16
2023-05-06T13:41:27.055Z,37.09
2023-05-06T13:44:10.507Z,37.06
2023-05-06T13:46:54.011Z,37.34
2023-05-06T13:49:37.232Z,37.72
2023-05-06T13:52:20.746Z,37.99
2023-05-06T13:55:03.966Z,37.55
2023-05-06T13:57:48.709Z,38.53
2023-05-06T14:00:31.869Z,37.83
2023-05-06T14:03:15.366Z,37.60
2023-05-06T14:05:58.779Z,37.48
2023-05-06T14:08:42.356Z,36.33
2023-05-06T14:11:25.845Z,37.03
2023-05-06T14:14:10.481Z,36.82
2023-05-06T14:16:54.818Z,37.07
2023-05-06T14:19:38.098Z,37.54
2023-05-06T14:22:21.330Z,37.24
2023-05-06T14:25:04.710Z,37.61
2023-05-06T14:27:48.040Z,37.91
2023-05-06T14:30:34.365Z,37.41
2023-05-06T14:33:17.906Z,38.15
2023-05-06T14:36:03.481Z,38.00
2023-05-06T14:38:48.069Z,38.35
2023-05-06T14:41:31.494Z,38.21
2023-05-06T14:44:16.363Z,38.95
2023-05-06T14:47:01.930Z,38.51
2023-05-06T14:49:45.601Z,38.93
2023-05-06T14:52:29.126Z,39.70
2023-05-06T14:55:12.704Z,39.69
2023-05-06T14:57:56.433Z,40.46
2023-05-06T15:00:40.129Z,41.33
2023-05-06T15:03:25.410Z,41.36
2023-05-06T15:06:08.714Z,41.28
2023-05-06T15:08:52.327Z,40.94
2023-05-06T15:11:35.589Z,41.75
2023-05-06T15:14:21.621Z,41.67
2023-05-06T15:17:05.003Z,40.80
2023-05-06T15:19:49.876Z,40.40
2023-05-06T15:22:33.075Z,40.38
2023-05-06T15:25:33.363Z,40.70
2023-05-06T15:28:18.290Z,41.29
2023-05-06T15:31:01.581Z,41.39
2023-05-06T15:33:44.867Z,41.53
2023-05-06T15:36:32.436Z,40.45
2023-05-06T15:39:15.624Z,41.56
2023-05-06T15:42:01.313Z,41.76
2023-05-06T15:44:45.556Z,42.43
2023-05-06T15:47:28.717Z,42.19
2023-05-06T15:50:24.735Z,41.93
2023-05-06T15:53:17.220Z,42.14
2023-05-06T15:56:13.255Z,41.91
2023-05-06T15:59:01.558Z,42.36
2023-05-06T16:04:32.690Z,43.54
2023-05-06T16:07:16.823Z,43.73
2023-05-06T16:10:01.875Z,44.11
2023-05-06T16:12:45.394Z,44.14
2023-05-06T16:15:28.982Z,43.91
2023-05-06T16:18:13.841Z,44.32
2023-05-06T16:20:57.726Z,43.94
2023-05-06T16:23:40.962Z,44.39
2023-05-06T16:26:26.853Z,44.27
2023-05-06T16:29:10.296Z,44.58
2023-05-06T16:31:53.549Z,44.00
2023-05-06T16:34:40.349Z,44.51
2023-05-06T16:37:24.075Z,44.25
2023-05-06T16:40:09.617Z,44.84
2023-05-06T16:42:54.409Z,44.75
2023-05-06T16:45:38.399Z,45.11
2023-05-06T16:48:21.760Z,45.13
2023-05-06T16:51:05.447Z,45.46
2023-05-06T16:53:49.016Z,45.98
2023-05-06T16:56:44.123Z,46.92
2023-05-06T16:59:35.898Z,47.86
2023-05-06T17:02:20.804Z,48.17
2023-05-06T17:05:04.348Z,48.55
2023-05-06T17:07:49.160Z,48.99
2023-05-06T17:10:33.463Z,48.99
2023-05-06T17:13:16.654Z,49.52
2023-05-06T17:16:01.409Z,50.26
2023-05-06T17:18:44.526Z,50.56
2023-05-06T17:21:27.977Z,50.96
2023-05-06T17:24:11.687Z,51.85
2023-05-06T17:26:54.938Z,51.45
2023-05-06T17:29:38.581Z,52.17
2023-05-06T17:32:23.734Z,52.43
2023-05-06T17:35:08.058Z,53.38
2023-05-06T17:37:51.519Z,54.13
2023-05-06T17:40:35.551Z,54.51
2023-05-06T17:43:19.221Z,54.77
2023-05-06T17:46:02.546Z,54.96
2023-05-06T17:48:47.188Z,55.50
2023-05-06T17:51:30.349Z,55.97
2023-05-06T17:54:13.928Z,56.06
2023-05-06T17:56:57.250Z,56.02
2023-05-06T17:59:40.503Z,56.83
2023-05-06T18:02:24.108Z,57.45
2023-05-06T18:05:10.012Z,57.28
2023-05-06T18:07:54.749Z,58.93
2023-05-06T18:10:39.034Z,58.45
2023-05-06T18:13:25.043Z,58.65
2023-05-06T18:16:09.835Z,58.84
2023-05-06T18:18:53.093Z,59.09
2023-05-06T18:21:37.700Z,58.86
2023-05-06T18:24:21.695Z,59.25
2023-05-06T18:27:05.216Z,59.62
2023-05-06T18:29:48.699Z,61.29
2023-05-06T18:32:32.932Z,61.47
2023-05-06T18:35:16.160Z,61.76
2023-05-06T18:38:01.180Z,61.40
2023-05-06T18:40:45.008Z,61.13
2023-05-06T18:43:29.110Z,60.93
2023-05-06T18:46:12.512Z,60.40
2023-05-06T18:48:56.791Z,60.81
2023-05-06T18:51:40.040Z,62.26
2023-05-06T18:54:24.881Z,63.73
2023-05-06T18:57:08.352Z,65.89
2023-05-06T18:59:52.439Z,65.38
2023-05-06T19:02:35.725Z,65.67
2023-05-06T19:05:19.746Z,65.39
2023-05-06T19:08:05.200Z,66.16
2023-05-06T19:10:50.075Z,66.50
2023-05-06T19:13:33.452Z,67.62
2023-05-06T19:16:16.990Z,67.21
2023-05-06T19:19:00.172Z,67.42
2023-05-06T19:21:43.446Z,67.32
2023-05-06T19:24:27.043Z,67.57
2023-05-06T19:27:12.006Z,67.81
2023-05-06T19:29:57.903Z,68.57
2023-05-06T19:32:41.273Z,69.26
2023-05-06T19:35:24.479Z,70.44
2023-05-06T19:38:08.192Z,70.59
2023-05-06T19:40:53.782Z,69.79
2023-05-06T19:43:44.076Z,69.98
2023-05-06T19:46:27.528Z,70.84
2023-05-06T19:49:11.091Z,70.09
2023-05-06T19:51:54.461Z,70.28
2023-05-06T19:54:37.557Z,70.51
2023-05-06T19:57:20.903Z,70.32
2023-05-06T20:00:10.289Z,71.00
2023-05-06T20:02:53.916Z,71.00
2023-05-06T20:05:37.083Z,71.13
2023-05-06T20:08:20.406Z,72.09
2023-05-06T20:11:05.789Z,72.38
2023-05-06T20:13:49.312Z,71.57
2023-05-06T20:16:33.816Z,71.85
2023-05-06T20:19:17.864Z,71.35
2023-05-06T20:22:04.399Z,71.69
2023-05-06T20:24:47.795Z,71.56
2023-05-06T20:27:31.407Z,72.34
2023-05-06T20:30:14.982Z,72.57
2023-05-06T20:33:00.035Z,73.14
2023-05-06T20:35:43.324Z,73.42
2023-05-06T20:38:28.286Z,73.25
2023-05-06T20:41:11.414Z,73.20
2023-05-06T20:43:55.694Z,73.04
2023-05-06T20:46:39.758Z,73.38
2023-05-06T20:49:24.696Z,72.35
2023-05-06T20:52:11.355Z,72.66
2023-05-06T20:54:56.150Z,73.36
2023-05-06T20:57:43.542Z,73.52
2023-05-06T21:00:27.139Z,73.71
2023-05-06T21:03:10.504Z,73.87
2023-05-06T21:05:56.589Z,73.57
2023-05-06T21:08:41.687Z,74.18
2023-05-06T21:11:24.886Z,73.57
2023-05-06T21:14:09.085Z,73.49
2023-05-06T21:16:52.891Z,73.44
2023-05-06T21:19:36.511Z,72.85
2023-05-06T21:22:22.399Z,73.55
2023-05-06T21:25:06.818Z,74.30
2023-05-06T21:27:50.305Z,74.58
2023-05-06T21:30:33.906Z,74.00
2023-05-06T21:33:17.861Z,73.35
2023-05-06T21:36:01.501Z,73.52
2023-05-06T21:38:46.413Z,74.50
2023-05-06T21:41:29.813Z,74.43
2023-05-06T21:44:14.446Z,75.15
2023-05-06T21:46:57.771Z,74.67
2023-05-06T21:49:40.962Z,75.02
2023-05-06T21:52:27.213Z,74.25
2023-05-06T21:55:12.512Z,75.07
2023-05-06T21:57:56.230Z,74.94
2023-05-06T22:00:39.361Z,74.99
2023-05-06T22:03:24.934Z,75.28
2023-05-06T22:06:08.386Z,75.37
2023-05-06T22:08:51.595Z,75.33
2023-05-06T22:11:37.569Z,75.21
2023-05-06T22:14:24.349Z,75.41
2023-05-06T22:17:10.948Z,75.49
2023-05-06T22:19:54.586Z,75.48
2023-05-06T22:22:38.465Z,75.76
2023-05-06T22:25:21.952Z,75.54
2023-05-06T22:28:07.669Z,75.26
2023-05-06T22:30:50.888Z,75.61
2023-05-06T22:33:34.024Z,75.58
2023-05-06T22:36:17.253Z,76.07
2023-05-06T22:39:00.537Z,76.10
2023-05-06T22:41:44.961Z,75.73
2023-05-06T22:44:29.774Z,75.78
2023-05-06T22:47:12.953Z,75.32
2023-05-06T22:49:56.609Z,75.50
2023-05-06T22:52:40.028Z,75.40
2023-05-06T22:55:23.573Z,75.46
2023-05-06T22:58:06.920Z,75.29
2023-05-06T23:00:51.542Z,75.95
2023-05-06T23:03:37.455Z,75.97
2023-05-06T23:06:22.488Z,75.99
2023-05-06T23:09:06.814Z,76.18
2023-05-06T23:11:50.034Z,75.67
2023-05-06T23:14:33.427Z,75.70
2023-05-06T23:17:18.318Z,75.59
2023-05-06T23:20:02.456Z,75.16
2023-05-06T23:22:45.736Z,76.17
2023-05-06T23:25:30.351Z,75.43
2023-05-06T23:28:13.684Z,74.92
2023-05-06T23:30:56.848Z,75.19
2023-05-06T23:33:41.423Z,75.72
2023-05-06T23:36:24.709Z,74.97
2023-05-06T23:39:11.522Z,75.53
2023-05-06T23:41:54.933Z,75.61
2023-05-06T23:44:38.665Z,76.98
2023-05-06T23:47:22.026Z,76.79
2023-05-06T23:50:07.424Z,76.67
2023-05-06T23:52:50.991Z,77.03
2023-05-06T23:55:34.195Z,77.34
2023-05-06T23:58:17.295Z,77.93
